Time;durP1;ratioP1;P1;durP2;ratioP2;P2;SDS_P1;SDS_P2;PMS_P1;PMS_P2;Temp;Humidity;BMP_temperature;BMP_pressure;BME280_temperature;BME280_humidity;BME280_pressure;Samples;Min_cycle;Max_cycle;Signal;HPM_P1;HPM_P2
2023/04/24 00:01:00;;;;;;;9.25;2.47;;;;;;;14.35;48.93;100852.41;5065882;28;20091;-82
2023/04/24 00:03:30;;;;;;;12.10;2.55;;;;;;;14.30;48.88;100847.13;5055889;28;20056;-78
2023/04/24 00:05:59;;;;;;;9.93;2.20;;;;;;;14.27;49.83;100840.97;5056142;28;20112;-81
2023/04/24 00:08:27;;;;;;;6.22;1.65;;;;;;;14.26;49.82;100855.72;5061856;28;20049;-82
2023/04/24 00:10:56;;;;;;;5.95;1.95;;;;;;;14.27;49.33;100852.28;5045065;28;20482;-82
2023/04/24 00:13:24;;;;;;;16.35;2.10;;;;;;;14.31;50.26;100855.81;5039878;28;20045;-81
2023/04/24 00:15:53;;;;;;;8.50;2.38;;;;;;;14.33;50.13;100856.72;5044345;28;20037;-83
2023/04/24 00:18:23;;;;;;;4.85;1.50;;;;;;;14.36;49.88;100859.34;5068940;28;20066;-83
2023/04/24 00:20:52;;;;;;;5.97;1.85;;;;;;;14.33;49.72;100860.19;5068089;28;20045;-82
2023/04/24 00:23:21;;;;;;;7.00;2.65;;;;;;;14.31;48.84;100851.47;5067581;28;20047;-82
2023/04/24 00:25:50;;;;;;;8.10;2.38;;;;;;;14.31;48.59;100861.88;5052560;28;20488;-81
2023/04/24 00:28:18;;;;;;;4.25;1.40;;;;;;;14.28;49.15;100859.22;5053883;28;20048;-78
2023/04/24 00:30:47;;;;;;;6.80;1.95;;;;;;;14.25;49.04;100869.59;5064045;28;20064;-83
2023/04/24 00:33:16;;;;;;;6.18;1.95;;;;;;;14.22;48.19;100865.22;5054848;28;20059;-86
2023/04/24 00:35:46;;;;;;;4.68;1.27;;;;;;;14.17;49.52;100868.59;5064763;28;20053;-84
2023/04/24 00:38:15;;;;;;;7.10;1.85;;;;;;;14.18;50.77;100878.16;5071070;28;20048;-81
2023/04/24 00:40:44;;;;;;;6.13;1.90;;;;;;;14.17;50.58;100876.41;5057696;28;20041;-81
2023/04/24 00:43:12;;;;;;;4.88;1.73;;;;;;;14.14;50.11;100881.56;5060816;28;20060;-80
2023/04/24 00:45:41;;;;;;;4.50;1.48;;;;;;;14.08;50.43;100878.84;5064645;28;20148;-84
2023/04/24 00:48:10;;;;;;;4.55;1.20;;;;;;;14.03;51.15;100890.03;5071524;28;20048;-83
2023/04/24 00:50:39;;;;;;;5.78;1.35;;;;;;;13.93;52.14;100890.75;5068873;28;20045;-86
2023/04/24 00:53:09;;;;;;;4.97;1.38;;;;;;;13.88;52.81;100888.88;5065337;28;20274;-82
2023/04/24 00:55:38;;;;;;;5.97;2.00;;;;;;;13.86;53.48;100894.09;5065896;28;20078;-82
2023/04/24 00:58:07;;;;;;;7.35;1.85;;;;;;;13.83;53.36;100891.41;5071420;28;20524;-85
2023/04/24 01:00:37;;;;;;;2.92;1.05;;;;;;;13.82;53.10;100889.66;5073322;28;20133;-83
2023/04/24 01:03:44;;;;;;;3.97;1.50;;;;;;;13.79;54.76;100881.81;4750601;27;9015072;-85
2023/04/24 01:06:13;;;;;;;5.90;1.20;;;;;;;13.77;53.81;100868.78;5067929;28;20049;-81
2023/04/24 01:08:43;;;;;;;3.17;1.17;;;;;;;13.75;53.86;100860.06;5062816;28;20102;-83
2023/04/24 01:11:12;;;;;;;3.60;1.20;;;;;;;13.71;54.39;100858.25;5061715;28;20044;-83
2023/04/24 01:13:41;;;;;;;5.72;1.70;;;;;;;13.68;55.56;100859.94;5064956;28;20080;-87
2023/04/24 01:16:10;;;;;;;7.68;1.85;;;;;;;13.60;55.08;100858.03;5073072;28;20056;-84
2023/04/24 01:18:40;;;;;;;4.13;1.63;;;;;;;13.53;56.24;100861.38;5067082;28;20040;-85
2023/04/24 01:21:11;;;;;;;3.70;1.55;;;;;;;13.48;56.49;100862.16;5072547;28;20105;-86
2023/04/24 01:23:41;;;;;;;4.65;1.23;;;;;;;13.41;56.83;100867.22;5061594;28;20071;-83
2023/04/24 01:26:10;;;;;;;6.15;1.17;;;;;;;13.38;57.33;100863.72;5058956;28;20053;-83
2023/04/24 01:28:39;;;;;;;4.95;1.30;;;;;;;13.37;58.24;100864.53;5059069;28;20503;-83
2023/04/24 01:31:08;;;;;;;10.77;1.48;;;;;;;13.36;56.89;100863.66;5061865;28;20060;-81
2023/04/24 01:33:37;;;;;;;4.40;1.27;;;;;;;13.35;57.53;100866.22;5063965;28;20722;-81
2023/04/24 01:36:06;;;;;;;8.00;1.30;;;;;;;13.32;56.41;100861.84;5057885;28;20475;-86
2023/04/24 01:38:35;;;;;;;6.78;1.27;;;;;;;13.28;56.06;100864.34;5065432;28;20207;-82
2023/04/24 01:41:05;;;;;;;3.40;1.30;;;;;;;13.26;57.49;100860.81;5057472;28;20501;-85
2023/04/24 01:43:34;;;;;;;7.10;1.63;;;;;;;13.23;56.21;100863.34;5057855;28;20090;-80
2023/04/24 01:46:03;;;;;;;6.20;1.52;;;;;;;13.15;57.86;100851.09;5062912;28;20132;-80
2023/04/24 01:48:33;;;;;;;4.85;1.00;;;;;;;13.13;58.44;100857.97;5056974;28;20108;-79
2023/04/24 01:51:02;;;;;;;6.40;0.90;;;;;;;13.13;58.80;100857.09;5063147;28;20044;-79
2023/04/24 01:53:30;;;;;;;2.35;1.70;;;;;;;13.12;59.14;100848.41;5061780;28;20083;-80
2023/04/24 01:56:00;;;;;;;3.58;2.03;;;;;;;13.10;60.20;100844.03;5051859;28;20053;-82
2023/04/24 01:58:30;;;;;;;6.32;1.50;;;;;;;13.08;59.36;100836.22;5050560;28;20045;-82
2023/04/24 02:00:59;;;;;;;4.03;1.08;;;;;;;13.04;59.40;100828.34;5062937;28;20612;-83
2023/04/24 02:03:28;;;;;;;4.93;1.10;;;;;;;12.98;59.43;100839.47;5040193;28;20061;-82
2023/04/24 02:05:57;;;;;;;7.57;1.55;;;;;;;12.91;60.66;100842.78;5034242;28;20057;-83
2023/04/24 02:08:25;;;;;;;3.97;1.10;;;;;;;12.87;61.10;100835.75;5027277;28;20163;-80
2023/04/24 02:10:54;;;;;;;2.90;1.23;;;;;;;12.81;63.17;100841.72;5031538;28;20080;-82
2023/04/24 02:13:23;;;;;;;3.17;1.10;;;;;;;12.73;61.57;100845.84;5031500;28;20963;-80
2023/04/24 02:15:53;;;;;;;4.00;1.17;;;;;;;12.63;62.50;100839.59;5022781;28;20070;-85
2023/04/24 02:18:22;;;;;;;6.72;1.52;;;;;;;12.58;63.50;100842.06;5022699;28;20057;-85
2023/04/24 02:20:51;;;;;;;3.63;1.30;;;;;;;12.55;64.86;100846.31;5020401;28;20046;-82
2023/04/24 02:23:19;;;;;;;3.25;1.20;;;;;;;12.50;65.41;100845.34;5016653;28;20141;-81
2023/04/24 02:25:48;;;;;;;5.22;1.80;;;;;;;12.48;66.10;100853.06;5021466;28;20064;-82
2023/04/24 02:28:17;;;;;;;2.25;1.20;;;;;;;12.43;65.73;100844.31;5027389;28;20050;-86
2023/04/24 02:30:45;;;;;;;4.93;1.50;;;;;;;12.42;66.00;100841.69;5032609;28;20052;-83
2023/04/24 02:33:16;;;;;;;3.05;1.33;;;;;;;12.39;65.75;100849.38;5021739;28;20534;-82
2023/04/24 02:35:45;;;;;;;6.63;1.55;;;;;;;12.34;67.55;100847.56;5028947;28;20050;-83
2023/04/24 02:38:13;;;;;;;6.45;1.48;;;;;;;12.31;67.54;100842.31;5033084;28;20041;-76
2023/04/24 02:40:42;;;;;;;2.42;1.00;;;;;;;12.26;67.51;100843.91;5025760;28;20049;-83
2023/04/24 02:43:11;;;;;;;6.22;1.35;;;;;;;12.23;67.54;100837.78;5025323;28;20065;-83
2023/04/24 02:45:39;;;;;;;1.35;1.17;;;;;;;12.22;67.51;100843.81;5024809;28;20053;-82
2023/04/24 02:48:08;;;;;;;3.60;1.42;;;;;;;12.17;67.29;100835.06;5028291;28;20049;-82
2023/04/24 02:50:38;;;;;;;8.13;2.05;;;;;;;12.15;67.77;100827.22;5039817;28;20037;-80
2023/04/24 02:53:07;;;;;;;8.45;1.92;;;;;;;12.11;67.87;100836.63;5037346;28;20060;-81
2023/04/24 02:55:35;;;;;;;5.05;1.27;;;;;;;12.07;67.94;100841.69;5029230;28;20101;-80
2023/04/24 02:58:04;;;;;;;4.03;1.33;;;;;;;12.02;67.00;100840.72;5022054;28;20057;-85
2023/04/24 03:00:32;;;;;;;6.30;1.75;;;;;;;12.01;66.58;100836.38;5018232;28;20041;-80
2023/04/24 03:03:01;;;;;;;7.25;1.52;;;;;;;11.97;67.36;100834.56;5017835;28;20128;-82
2023/04/24 03:05:30;;;;;;;6.55;1.85;;;;;;;11.94;66.93;100837.94;5022668;28;20084;-80
2023/04/24 03:08:01;;;;;;;5.55;1.38;;;;;;;11.89;65.99;100827.47;5026115;28;20088;-83
2023/04/24 03:10:29;;;;;;;6.15;1.30;;;;;;;11.86;67.01;100824.72;5016217;28;20054;-80
2023/04/24 03:12:58;;;;;;;6.88;1.98;;;;;;;11.79;66.86;100827.16;5015656;28;20511;-81
2023/04/24 03:15:27;;;;;;;6.95;2.22;;;;;;;11.71;67.15;100826.97;5024594;28;20069;-82
2023/04/24 03:17:56;;;;;;;6.07;1.92;;;;;;;11.68;67.10;100830.34;5019570;28;20101;-81
2023/04/24 03:20:25;;;;;;;8.20;2.00;;;;;;;11.66;67.42;100826.84;5013767;28;20042;-83
2023/04/24 03:22:54;;;;;;;6.38;2.05;;;;;;;11.64;68.27;100836.28;5019394;28;20198;-83
2023/04/24 03:25:24;;;;;;;7.00;2.00;;;;;;;11.62;68.76;100830.19;5031445;28;20541;-84
2023/04/24 03:27:54;;;;;;;5.70;1.60;;;;;;;11.59;68.55;100835.28;5018389;28;20058;-81
2023/04/24 03:30:23;;;;;;;3.83;1.98;;;;;;;11.52;69.42;100839.44;5022604;28;20119;-84
2023/04/24 03:32:52;;;;;;;3.47;1.40;;;;;;;11.47;69.52;100840.13;5033477;28;20045;-81
2023/04/24 03:35:21;;;;;;;7.78;1.85;;;;;;;11.47;69.56;100841.00;5029794;28;20045;-85
2023/04/24 03:37:49;;;;;;;7.18;1.77;;;;;;;11.44;69.58;100840.94;5012673;28;20556;-83
2023/04/24 03:40:18;;;;;;;9.80;2.63;;;;;;;11.44;69.82;100848.69;5023300;28;20049;-80
2023/04/24 03:42:49;;;;;;;4.05;1.67;;;;;;;11.38;69.98;100856.28;5014258;28;20053;-79
2023/04/24 03:45:17;;;;;;;6.22;1.80;;;;;;;11.36;70.36;100863.16;5026700;28;20085;-83
2023/04/24 03:47:46;;;;;;;3.28;1.48;;;;;;;11.35;70.71;100871.75;5018605;28;20046;-79
2023/04/24 03:50:14;;;;;;;3.83;1.30;;;;;;;11.30;70.82;100875.94;5019562;28;20543;-80
2023/04/24 03:52:43;;;;;;;5.00;1.70;;;;;;;11.28;70.87;100882.78;5026689;28;20450;-78
2023/04/24 03:55:12;;;;;;;6.18;1.80;;;;;;;11.13;71.24;100859.03;5026608;28;20499;-80
2023/04/24 03:57:41;;;;;;;4.47;1.58;;;;;;;11.20;71.35;100871.31;5015250;28;20725;-80
2023/04/24 04:00:14;;;;;;;7.32;1.50;;;;;;;11.18;71.71;100872.97;5017795;28;20042;-81
2023/04/24 04:02:43;;;;;;;6.57;1.30;;;;;;;11.18;71.31;100866.13;5013760;28;20053;-79
2023/04/24 04:05:11;;;;;;;4.50;1.58;;;;;;;11.16;72.39;100872.97;5021666;28;20053;-80
2023/04/24 04:07:40;;;;;;;8.88;1.77;;;;;;;11.14;72.20;100873.75;5016667;28;20056;-79
2023/04/24 04:10:09;;;;;;;4.95;1.50;;;;;;;11.09;72.46;100876.22;5027351;28;20049;-80
2023/04/24 04:12:38;;;;;;;7.70;1.60;;;;;;;11.08;73.47;100895.16;5017343;28;20058;-82
2023/04/24 04:15:07;;;;;;;3.10;1.65;;;;;;;11.06;74.28;100897.72;5021363;28;20045;-80
2023/04/24 04:17:38;;;;;;;6.38;1.65;;;;;;;11.03;74.67;100895.00;5016043;28;20697;-80
2023/04/24 04:20:09;;;;;;;4.57;1.67;;;;;;;11.03;76.59;100905.38;5023991;28;20104;-80
2023/04/24 04:22:38;;;;;;;12.05;2.80;;;;;;;11.03;76.79;100900.19;5018726;28;20510;-81
2023/04/24 04:25:08;;;;;;;9.05;1.77;;;;;;;11.01;77.49;100911.34;5024442;28;20046;-81
2023/04/24 04:27:37;;;;;;;5.35;1.55;;;;;;;10.99;79.06;100908.69;5023625;28;20080;-82
2023/04/24 04:30:06;;;;;;;5.47;1.23;;;;;;;10.96;80.60;100908.63;5023006;28;20518;-80
2023/04/24 04:32:35;;;;;;;3.90;1.48;;;;;;;10.92;82.56;100911.94;5018077;28;20050;-79
2023/04/24 04:35:06;;;;;;;7.88;1.63;;;;;;;10.90;84.68;100916.19;5017411;28;20050;-81
2023/04/24 04:37:35;;;;;;;6.53;1.98;;;;;;;10.88;85.83;100915.25;5020182;28;20391;-81
2023/04/24 04:40:07;;;;;;;7.13;1.55;;;;;;;10.83;86.24;100897.00;5015132;28;20046;-82
2023/04/24 04:42:35;;;;;;;2.07;1.53;;;;;;;10.77;87.14;100896.81;5030855;28;20085;-79
2023/04/24 04:45:05;;;;;;;5.28;1.52;;;;;;;10.70;87.37;100881.94;5026303;28;20491;-82
2023/04/24 04:47:34;;;;;;;5.75;1.73;;;;;;;10.65;87.44;100881.78;5019792;28;20052;-81
2023/04/24 04:50:05;;;;;;;4.25;1.35;;;;;;;10.57;88.56;100877.22;5020454;28;20395;-82
2023/04/24 04:52:33;;;;;;;9.75;2.25;;;;;;;10.46;88.56;100884.63;5015779;28;20057;-80
2023/04/24 04:55:02;;;;;;;5.35;1.42;;;;;;;10.42;89.55;100883.66;5027994;28;20652;-80
2023/04/24 04:57:31;;;;;;;6.20;1.40;;;;;;;10.40;90.37;100885.31;5024526;28;20671;-80
2023/04/24 05:00:00;;;;;;;5.45;1.20;;;;;;;10.34;91.80;100889.41;5022863;28;20046;-83
2023/04/24 05:02:29;;;;;;;7.70;1.45;;;;;;;10.33;91.91;100896.31;5015592;28;20065;-80
2023/04/24 05:04:57;;;;;;;3.35;0.88;;;;;;;10.29;92.26;100885.81;5003661;28;20078;-84
2023/04/24 05:07:28;;;;;;;4.40;1.38;;;;;;;10.25;92.21;100898.56;5002803;28;20062;-79
2023/04/24 05:09:56;;;;;;;1.98;1.10;;;;;;;10.27;93.21;100898.63;5002915;28;20056;-81
2023/04/24 05:12:25;;;;;;;6.05;1.40;;;;;;;10.28;93.63;100900.38;5001813;28;20046;-81
2023/04/24 05:14:54;;;;;;;6.03;1.13;;;;;;;10.29;93.33;100901.31;5001985;28;20132;-81
2023/04/24 05:17:23;;;;;;;8.50;1.35;;;;;;;10.29;93.40;100899.59;4997942;28;20136;-80
2023/04/24 05:19:51;;;;;;;9.38;1.48;;;;;;;10.30;93.67;100908.25;5007985;28;20042;-78
2023/04/24 05:22:20;;;;;;;8.50;1.33;;;;;;;10.31;93.85;100907.41;5005720;28;20507;-79
2023/04/24 05:24:51;;;;;;;7.18;1.83;;;;;;;10.22;94.27;100903.66;5001550;28;20057;-79
2023/04/24 05:27:19;;;;;;;3.45;1.25;;;;;;;10.30;94.16;100916.00;4994790;28;20105;-81
2023/04/24 05:29:48;;;;;;;5.13;1.35;;;;;;;10.30;94.22;100913.41;5002515;28;20053;-81
2023/04/24 05:32:17;;;;;;;6.05;1.33;;;;;;;10.22;94.08;100913.13;5000986;28;20144;-80
2023/04/24 05:34:46;;;;;;;5.57;1.00;;;;;;;10.22;94.45;100921.75;5005467;28;20049;-83
2023/04/24 05:37:15;;;;;;;3.90;1.17;;;;;;;10.24;94.35;100927.88;4999628;28;20530;-81
2023/04/24 05:39:43;;;;;;;2.20;1.20;;;;;;;10.26;94.11;100927.91;4996273;28;20061;-80
2023/04/24 05:42:14;;;;;;;1.23;0.88;;;;;;;10.26;94.37;100933.06;4996636;28;20070;-81
2023/04/24 05:44:42;;;;;;;2.85;1.20;;;;;;;10.25;94.43;100936.50;4999341;28;20129;-81
2023/04/24 05:47:11;;;;;;;2.92;0.90;;;;;;;10.22;95.78;100934.69;4999938;28;20065;-81
2023/04/24 05:49:40;;;;;;;2.47;1.40;;;;;;;10.20;96.79;100933.75;5010774;28;20084;-79
2023/04/24 05:52:09;;;;;;;2.83;1.25;;;;;;;10.17;97.65;100938.84;5003912;28;20125;-82
2023/04/24 05:54:37;;;;;;;5.95;1.30;;;;;;;10.12;97.85;100940.34;5002248;28;20141;-84
2023/04/24 05:57:07;;;;;;;3.28;1.13;;;;;;;10.09;99.93;100936.81;5008601;28;20071;-81
2023/04/24 05:59:39;;;;;;;4.15;1.20;;;;;;;10.05;100.00;100928.06;4996261;28;20058;-82
2023/04/24 06:02:08;;;;;;;2.55;1.02;;;;;;;9.96;100.00;100933.78;5006832;28;20050;-81
2023/04/24 06:04:37;;;;;;;3.50;1.10;;;;;;;9.90;100.00;100923.25;5022758;28;20042;-81
2023/04/24 06:07:06;;;;;;;2.70;1.20;;;;;;;9.83;100.00;100919.56;5022343;28;20821;-78
2023/04/24 06:09:35;;;;;;;3.25;1.40;;;;;;;9.77;100.00;100916.75;5020620;28;20111;-78
2023/04/24 06:12:04;;;;;;;3.85;1.20;;;;;;;9.71;100.00;100921.72;5026977;28;20073;-79
2023/04/24 06:14:32;;;;;;;5.55;1.17;;;;;;;9.68;100.00;100916.44;5023553;28;20061;-81
2023/04/24 06:17:03;;;;;;;3.83;1.02;;;;;;;9.69;100.00;100913.03;5020333;28;20050;-82
2023/04/24 06:19:32;;;;;;;2.38;1.15;;;;;;;9.62;100.00;100911.03;5019666;28;20061;-80
2023/04/24 06:22:00;;;;;;;3.50;0.82;;;;;;;9.73;100.00;100930.38;5021086;28;20136;-79
2023/04/24 06:24:30;;;;;;;2.80;1.23;;;;;;;9.76;100.00;100922.78;5024199;28;20046;-80
2023/04/24 06:26:59;;;;;;;2.67;1.05;;;;;;;9.76;100.00;100925.34;5021055;28;20384;-81
2023/04/24 06:29:28;;;;;;;5.43;1.20;;;;;;;9.79;100.00;100930.63;5018985;28;20041;-81
2023/04/24 06:31:57;;;;;;;3.17;1.27;;;;;;;9.81;100.00;100928.97;5043271;28;20083;-81
2023/04/24 06:34:27;;;;;;;3.50;1.23;;;;;;;9.83;100.00;100937.66;5040959;28;20048;-81
2023/04/24 06:36:56;;;;;;;1.52;0.95;;;;;;;9.84;100.00;100934.22;5043460;28;20131;-79
2023/04/24 06:39:25;;;;;;;1.77;0.90;;;;;;;9.84;100.00;100939.41;5042777;28;20056;-79
2023/04/24 06:41:54;;;;;;;1.98;0.93;;;;;;;9.84;100.00;100943.69;5043459;28;20042;-79
2023/04/24 06:44:22;;;;;;;2.33;0.90;;;;;;;9.84;100.00;100947.16;5041549;28;20092;-78
2023/04/24 06:46:51;;;;;;;4.75;1.45;;;;;;;9.85;100.00;100946.34;5041873;28;20056;-82
2023/04/24 06:49:19;;;;;;;4.32;1.10;;;;;;;9.90;100.00;100953.41;5044678;28;20052;-81
2023/04/24 06:51:50;;;;;;;4.72;0.98;;;;;;;9.93;100.00;100958.66;5041684;28;20048;-81
2023/04/24 06:54:18;;;;;;;5.43;0.93;;;;;;;9.95;100.00;100957.00;5042981;28;20041;-81
2023/04/24 06:56:48;;;;;;;2.10;0.70;;;;;;;9.96;100.00;100953.59;5039754;28;20478;-81
2023/04/24 06:59:17;;;;;;;3.03;1.13;;;;;;;9.94;100.00;100960.41;5041522;28;20060;-81
2023/04/24 07:01:45;;;;;;;2.80;0.80;;;;;;;9.92;100.00;100951.72;5038791;28;20050;-82
2023/04/24 07:04:14;;;;;;;3.30;1.35;;;;;;;9.90;100.00;100956.84;5022896;28;20052;-81
2023/04/24 07:06:43;;;;;;;2.55;0.73;;;;;;;9.91;100.00;100960.31;5022938;28;20053;-79
2023/04/24 07:09:14;;;;;;;3.13;1.17;;;;;;;9.91;100.00;100965.47;5021290;28;20045;-81
2023/04/24 07:11:42;;;;;;;3.13;0.90;;;;;;;9.93;100.00;100964.69;5039590;28;20045;-81
2023/04/24 07:14:11;;;;;;;2.67;1.00;;;;;;;9.96;100.00;100966.50;5042796;28;20492;-80
2023/04/24 07:16:40;;;;;;;4.57;1.10;;;;;;;9.99;100.00;100980.44;5037805;28;20550;-81
2023/04/24 07:19:09;;;;;;;3.65;0.93;;;;;;;10.02;100.00;100980.53;5046470;28;20037;-81
2023/04/24 07:21:37;;;;;;;1.27;0.70;;;;;;;10.03;100.00;100977.16;5045977;28;20045;-81
2023/04/24 07:24:09;;;;;;;2.22;1.13;;;;;;;10.02;100.00;100974.50;5041941;28;20057;-80
2023/04/24 07:26:40;;;;;;;5.47;1.48;;;;;;;9.95;100.00;100981.16;5042699;28;20132;-80
2023/04/24 07:29:09;;;;;;;3.67;1.67;;;;;;;9.91;100.00;100981.84;5043638;28;20582;-80
2023/04/24 07:31:38;;;;;;;3.60;1.55;;;;;;;9.89;100.00;100982.63;5046761;28;20052;-81
2023/04/24 07:34:07;;;;;;;3.45;0.93;;;;;;;9.86;100.00;100997.19;5039894;28;20053;-79
2023/04/24 07:36:35;;;;;;;3.03;1.13;;;;;;;9.85;100.00;100995.47;5042590;28;20067;-80
2023/04/24 07:39:04;;;;;;;6.80;1.15;;;;;;;9.78;100.00;100987.41;5043841;28;20487;-76
2023/04/24 07:41:33;;;;;;;4.80;1.10;;;;;;;9.68;100.00;100995.66;5038376;28;20060;-78
2023/04/24 07:44:03;;;;;;;4.07;0.88;;;;;;;9.65;100.00;100996.44;5041851;28;20053;-78
2023/04/24 07:46:32;;;;;;;1.05;0.68;;;;;;;9.60;100.00;100982.47;5046953;28;20049;-78
2023/04/24 07:49:01;;;;;;;1.02;0.50;;;;;;;9.55;100.00;100991.72;5039624;28;20457;-78
2023/04/24 07:51:30;;;;;;;2.78;0.77;;;;;;;9.52;100.00;100999.38;5042485;28;20513;-78
2023/04/24 07:53:59;;;;;;;0.65;0.45;;;;;;;9.51;100.00;101000.22;5041246;28;20447;-80
2023/04/24 07:56:30;;;;;;;5.30;1.15;;;;;;;9.51;100.00;100997.63;5040509;28;20092;-79
2023/04/24 07:58:59;;;;;;;1.70;0.55;;;;;;;9.49;100.00;100996.69;5040324;28;20044;-79
2023/04/24 08:01:30;;;;;;;1.42;0.80;;;;;;;9.42;100.00;101006.78;5037373;28;20622;-79
2023/04/24 08:04:06;;;;;;;1.05;0.50;;;;;;;9.39;100.00;101001.50;5017833;28;20491;-78
2023/04/24 08:06:35;;;;;;;4.45;0.77;;;;;;;9.40;100.00;101007.53;5016015;28;20049;-76
2023/04/24 08:09:04;;;;;;;3.08;0.80;;;;;;;9.37;100.00;101008.31;5021683;28;20049;-79
2023/04/24 08:11:33;;;;;;;1.45;0.63;;;;;;;9.34;100.00;101002.13;5026045;28;20053;-79
2023/04/24 08:14:02;;;;;;;2.15;0.50;;;;;;;9.36;100.00;101010.81;5022762;28;20631;-79
2023/04/24 08:16:34;;;;;;;2.53;0.57;;;;;;;9.35;100.00;101014.25;5017829;28;20042;-78
2023/04/24 08:19:02;;;;;;;0.63;0.57;;;;;;;9.32;100.00;101012.41;5021698;28;20140;-77
2023/04/24 08:21:31;;;;;;;8.65;0.85;;;;;;;9.30;100.00;101014.06;5017000;28;20057;-77
2023/04/24 08:24:00;;;;;;;4.53;0.70;;;;;;;9.27;100.00;101016.50;5020577;28;20084;-79
2023/04/24 08:26:29;;;;;;;2.13;0.60;;;;;;;9.25;100.00;101018.16;5026201;28;20077;-77
2023/04/24 08:28:57;;;;;;;6.07;1.05;;;;;;;9.19;100.00;101012.75;5038585;28;20037;-77
2023/04/24 08:31:26;;;;;;;1.33;0.57;;;;;;;9.15;100.00;101016.91;5038405;28;20049;-79
2023/04/24 08:33:57;;;;;;;3.55;0.90;;;;;;;9.17;100.00;101019.56;5039124;28;20542;-79
2023/04/24 08:36:25;;;;;;;3.90;0.88;;;;;;;9.20;100.00;101030.00;5042357;28;20045;-77
2023/04/24 08:38:54;;;;;;;1.05;0.65;;;;;;;9.19;100.00;101026.53;5038882;28;20085;-78
2023/04/24 08:41:26;;;;;;;3.17;0.70;;;;;;;9.18;100.00;101021.31;5034934;28;20053;-79
2023/04/24 08:43:54;;;;;;;3.88;1.00;;;;;;;9.15;100.00;101027.22;5041054;28;20053;-78
2023/04/24 08:46:24;;;;;;;1.40;0.65;;;;;;;9.13;100.00;101028.00;5045971;28;20094;-78
2023/04/24 08:48:56;;;;;;;1.92;0.98;;;;;;;9.15;100.00;101026.38;5040218;28;20132;-77
2023/04/24 08:51:26;;;;;;;1.48;0.60;;;;;;;9.17;100.00;101022.16;5034577;28;20042;-78
2023/04/24 08:53:56;;;;;;;3.15;0.88;;;;;;;9.18;100.00;101031.63;5035281;28;20067;-78
2023/04/24 08:56:25;;;;;;;1.85;0.80;;;;;;;9.18;100.00;101023.91;5041829;28;20080;-78
2023/04/24 08:58:55;;;;;;;2.60;0.95;;;;;;;9.18;100.00;101026.47;5039382;28;20798;-75
2023/04/24 09:01:26;;;;;;;3.05;0.90;;;;;;;9.16;100.00;101028.09;5048863;28;20059;-77
2023/04/24 09:03:57;;;;;;;3.30;0.85;;;;;;;9.17;100.00;101025.59;5030178;28;20781;-76
2023/04/24 09:06:27;;;;;;;1.48;0.80;;;;;;;9.15;100.00;101029.81;5042777;28;20055;-76
2023/04/24 09:08:57;;;;;;;1.55;0.63;;;;;;;9.15;100.00;101031.53;5038110;28;20597;-78
2023/04/24 09:11:28;;;;;;;4.15;0.98;;;;;;;9.05;100.00;101014.81;5039826;28;20084;-76
2023/04/24 09:13:58;;;;;;;2.67;0.93;;;;;;;9.08;100.00;101019.19;5040778;28;20453;-76
2023/04/24 09:16:27;;;;;;;3.85;1.00;;;;;;;9.19;100.00;101030.84;5041369;28;20060;-77
2023/04/24 09:18:58;;;;;;;4.13;0.93;;;;;;;9.18;100.00;101035.09;5040773;28;20045;-75
2023/04/24 09:21:32;;;;;;;0.63;0.38;;;;;;;9.18;100.00;101029.94;5039755;28;20121;-76
2023/04/24 09:24:03;;;;;;;0.80;0.32;;;;;;;9.19;100.00;101026.53;5039528;28;20142;-78
2023/04/24 09:26:35;;;;;;;1.45;0.70;;;;;;;9.19;100.00;101033.41;5044165;28;20653;-78
2023/04/24 09:29:04;;;;;;;3.25;0.50;;;;;;;9.17;100.00;101029.88;5041072;28;20044;-75
2023/04/24 09:31:34;;;;;;;2.45;0.43;;;;;;;9.15;100.00;101031.53;5041483;28;20040;-78
2023/04/24 09:34:07;;;;;;;2.83;0.57;;;;;;;9.17;100.00;101029.88;5049482;28;20505;-79
2023/04/24 09:36:37;;;;;;;2.58;0.60;;;;;;;9.18;100.00;101029.94;5043057;28;20080;-77
2023/04/24 09:39:08;;;;;;;0.77;0.40;;;;;;;9.23;100.00;101025.84;5045883;28;20053;-76
2023/04/24 09:41:36;;;;;;;3.78;0.82;;;;;;;9.25;100.00;101033.63;5038771;28;20041;-78
2023/04/24 09:44:14;;;;;;;0.82;0.40;;;;;;;9.27;100.00;101042.31;5039735;28;20056;-78
2023/04/24 09:46:44;;;;;;;2.30;0.47;;;;;;;9.26;100.00;101035.41;5048043;28;20049;-79
2023/04/24 09:49:16;;;;;;;1.55;0.40;;;;;;;9.30;100.00;101042.47;5045853;28;20050;-76
2023/04/24 09:51:45;;;;;;;1.05;0.52;;;;;;;9.28;100.00;101049.28;5042721;28;20108;-77
2023/04/24 09:54:17;;;;;;;4.15;0.80;;;;;;;9.27;100.00;101044.91;5047533;28;20060;-77
2023/04/24 09:56:47;;;;;;;0.70;0.40;;;;;;;9.27;100.00;101050.06;5044511;28;20329;-76
2023/04/24 09:59:17;;;;;;;2.33;0.70;;;;;;;9.26;100.00;101056.06;5045248;28;20394;-77
2023/04/24 10:01:46;;;;;;;1.45;0.60;;;;;;;9.24;100.00;101057.72;5049360;28;20484;-78
2023/04/24 10:04:20;;;;;;;1.13;0.40;;;;;;;9.26;100.00;101066.41;5034993;28;20057;-76
2023/04/24 10:06:51;;;;;;;1.75;1.10;;;;;;;9.27;100.00;101065.56;5022209;28;20052;-77
2023/04/24 10:09:20;;;;;;;1.98;0.77;;;;;;;9.26;100.00;101061.25;5027154;28;20136;-78
2023/04/24 10:11:57;;;;;;;1.67;0.50;;;;;;;9.25;100.00;101063.75;5030372;28;20451;-76
2023/04/24 10:14:26;;;;;;;3.13;0.93;;;;;;;9.18;100.00;101062.63;5027359;28;20056;-77
2023/04/24 10:16:58;;;;;;;2.05;0.47;;;;;;;9.18;100.00;101072.94;5020627;28;20049;-79
2023/04/24 10:19:28;;;;;;;0.77;0.40;;;;;;;9.18;100.00;101067.78;5043616;28;20103;-78
2023/04/24 10:21:59;;;;;;;6.28;0.70;;;;;;;9.15;100.00;101080.56;5049013;28;20041;-78
2023/04/24 10:24:27;;;;;;;1.33;0.55;;;;;;;9.14;100.00;101079.72;5043504;28;20099;-79
2023/04/24 10:26:56;;;;;;;0.82;0.28;;;;;;;9.17;100.00;101082.41;5040551;28;20045;-78
2023/04/24 10:29:26;;;;;;;2.97;0.45;;;;;;;9.21;100.00;101080.84;5038587;28;20061;-77
2023/04/24 10:31:55;;;;;;;6.10;0.55;;;;;;;9.22;100.00;101092.91;5050983;28;20095;-78
2023/04/24 10:34:25;;;;;;;1.75;0.20;;;;;;;9.22;100.00;101080.00;5044900;28;20053;-78
2023/04/24 10:36:57;;;;;;;0.47;0.30;;;;;;;9.24;100.00;101083.53;5046089;28;20609;-77
2023/04/24 10:39:26;;;;;;;2.90;0.60;;;;;;;9.24;100.00;101083.53;5046727;28;20049;-77
2023/04/24 10:41:57;;;;;;;2.28;0.30;;;;;;;9.24;100.00;101083.53;5041761;28;20040;-78
2023/04/24 10:44:26;;;;;;;0.77;0.40;;;;;;;9.18;100.00;101083.28;5051730;28;20123;-83
2023/04/24 10:46:57;;;;;;;0.98;0.57;;;;;;;9.18;100.00;101086.72;5042610;28;20051;-80
2023/04/24 10:49:31;;;;;;;2.60;0.50;;;;;;;9.18;100.00;101091.03;5042094;28;20095;-79
2023/04/24 10:52:06;;;;;;;0.85;0.25;;;;;;;9.17;100.00;101090.16;5043475;28;20045;-79
2023/04/24 10:54:38;;;;;;;0.75;0.25;;;;;;;9.14;100.00;101099.44;5040210;28;20087;-78
2023/04/24 10:57:32;;;;;;;0.88;0.35;;;;;;;8.99;100.00;101086.81;5046567;28;20490;-78
2023/04/24 11:00:17;;;;;;;1.33;0.30;;;;;;;9.07;100.00;101105.19;5019060;28;20079;-76
2023/04/24 11:02:52;;;;;;;1.02;0.35;;;;;;;9.06;100.00;101100.84;5038771;28;20137;-78
2023/04/24 11:05:22;;;;;;;2.75;0.43;;;;;;;9.04;100.00;101094.75;5005530;28;20050;-78
2023/04/24 11:08:14;;;;;;;1.17;0.50;;;;;;;9.02;100.00;101098.16;5003081;28;20423;-80
2023/04/24 11:10:46;;;;;;;2.10;0.35;;;;;;;9.00;100.00;101104.94;5001871;28;20531;-78
2023/04/24 11:13:18;;;;;;;0.10;0.10;;;;;;;8.98;100.00;101101.44;4999615;28;20042;-78
2023/04/24 11:15:46;;;;;;;1.00;0.37;;;;;;;8.96;100.00;101113.38;4996994;28;20053;-78
2023/04/24 11:18:17;;;;;;;0.80;0.40;;;;;;;8.94;100.00;101120.16;5003508;28;20085;-80
2023/04/24 11:20:46;;;;;;;1.45;0.32;;;;;;;8.93;100.00;101112.34;5000879;28;20084;-80
2023/04/24 11:23:17;;;;;;;1.73;0.40;;;;;;;8.90;100.00;101107.06;5003819;28;20726;-79
2023/04/24 11:25:46;;;;;;;1.15;0.30;;;;;;;8.85;100.00;101117.22;5002010;28;20492;-78
2023/04/24 11:28:17;;;;;;;0.63;0.40;;;;;;;8.83;100.00;101116.25;5001701;28;20050;-78
2023/04/24 11:30:46;;;;;;;1.50;0.50;;;;;;;8.81;100.00;101118.75;4999709;28;20046;-79
2023/04/24 11:33:22;;;;;;;0.60;0.30;;;;;;;8.80;100.00;101121.31;5001342;28;20057;-80
2023/04/24 11:35:53;;;;;;;2.13;0.45;;;;;;;8.79;100.00;101125.56;5007842;28;20046;-80